Time;durP1;ratioP1;P1;durP2;ratioP2;P2;SDS_P1;SDS_P2;PMS_P1;PMS_P2;Temp;Humidity;BMP_temperature;BMP_pressure;BME280_temperature;BME280_humidity;BME280_pressure;Samples;Min_cycle;Max_cycle;Signal;HPM_P1;HPM_P2
2021/12/02 00:01:57;;;;;;;109.55;98.03;;;4.90;95.90;;;;;;5072888;28;20445;-80
2021/12/02 00:04:51;;;;;;;110.05;98.78;;;4.90;95.90;;;;;;5065628;28;20132;-80
2021/12/02 00:07:18;;;;;;;110.43;99.30;;;4.90;96.00;;;;;;5036170;28;20496;-80
2021/12/02 00:09:47;;;;;;;108.72;97.82;;;4.90;96.00;;;;;;5054303;28;20139;-80
2021/12/02 00:12:14;;;;;;;108.57;97.40;;;4.80;95.90;;;;;;5053775;28;20053;-80
2021/12/02 00:21:04;;;;;;;109.82;98.43;;;4.80;95.90;;;;;;5053384;28;20092;-80
2021/12/02 00:23:35;;;;;;;108.72;97.47;;;4.70;96.00;;;;;;5053540;28;20045;-80
2021/12/02 00:26:05;;;;;;;110.13;98.78;;;4.70;96.00;;;;;;5053137;28;20136;-80
2021/12/02 00:28:35;;;;;;;107.07;96.22;;;4.70;96.00;;;;;;5054309;28;20108;-81
2021/12/02 00:31:02;;;;;;;108.00;96.95;;;4.80;95.90;;;;;;5037975;28;20508;-80
2021/12/02 00:33:32;;;;;;;108.65;97.50;;;4.70;95.80;;;;;;5053490;28;20060;-80
2021/12/02 00:36:01;;;;;;;108.68;97.20;;;4.70;95.80;;;;;;5052937;28;20051;-80
2021/12/02 00:38:28;;;;;;;108.93;97.72;;;4.70;95.80;;;;;;5053814;28;20082;-80
2021/12/02 00:40:55;;;;;;;108.72;97.38;;;4.70;95.70;;;;;;5052698;28;20200;-80
2021/12/02 00:43:23;;;;;;;109.20;98.20;;;4.70;95.70;;;;;;5053019;28;20104;-80
2021/12/02 00:45:50;;;;;;;108.25;97.20;;;4.70;95.60;;;;;;5052629;28;20042;-80
2021/12/02 00:48:18;;;;;;;109.20;98.10;;;4.70;95.60;;;;;;5036674;28;20082;-80
2021/12/02 00:50:48;;;;;;;107.55;96.63;;;4.70;95.70;;;;;;5053213;28;20053;-80
2021/12/02 00:53:20;;;;;;;107.97;97.05;;;4.60;95.70;;;;;;5054078;28;20104;-80
2021/12/02 00:55:49;;;;;;;108.75;97.65;;;4.60;95.70;;;;;;5052849;28;20132;-80
2021/12/02 00:58:19;;;;;;;107.57;96.72;;;4.60;95.70;;;;;;5053177;28;20060;-80
2021/12/02 01:00:51;;;;;;;108.05;96.72;;;4.60;95.70;;;;;;5053233;28;20084;-80
2021/12/02 01:03:19;;;;;;;108.35;97.55;;;4.60;95.70;;;;;;5052987;28;20057;-80
2021/12/02 01:05:46;;;;;;;107.13;96.20;;;4.60;95.70;;;;;;5052791;28;20911;-80
2021/12/02 01:08:15;;;;;;;109.07;97.85;;;4.60;95.60;;;;;;5053016;28;20053;-80
2021/12/02 01:10:43;;;;;;;108.88;97.85;;;4.50;95.60;;;;;;5053114;28;20064;-80
2021/12/02 01:13:11;;;;;;;109.43;98.10;;;4.60;95.60;;;;;;5052927;28;20055;-80
2021/12/02 01:15:38;;;;;;;108.25;97.32;;;4.50;95.50;;;;;;5052558;28;20053;-80
2021/12/02 01:18:06;;;;;;;109.32;98.18;;;4.50;95.50;;;;;;5052913;28;20053;-80
2021/12/02 01:20:34;;;;;;;107.22;96.22;;;4.50;95.50;;;;;;5053018;28;20057;-80
2021/12/02 01:23:02;;;;;;;108.10;97.20;;;4.50;95.50;;;;;;5052725;28;20049;-80
2021/12/02 01:25:31;;;;;;;107.47;96.70;;;4.50;95.50;;;;;;5052635;28;20132;-80
2021/12/02 01:28:00;;;;;;;107.07;96.40;;;4.50;95.50;;;;;;5052774;28;20048;-80
2021/12/02 01:30:29;;;;;;;107.57;96.68;;;4.40;95.50;;;;;;5052742;28;20053;-80
2021/12/02 01:33:01;;;;;;;108.82;98.05;;;4.40;95.50;;;;;;5069394;28;20056;-80
2021/12/02 01:35:29;;;;;;;107.18;96.20;;;4.40;95.40;;;;;;5052352;28;20076;-80
2021/12/02 01:37:56;;;;;;;107.47;96.60;;;4.40;95.30;;;;;;5052457;28;20053;-80
2021/12/02 01:40:24;;;;;;;107.45;96.65;;;4.40;95.30;;;;;;5052733;28;20075;-79
2021/12/02 01:42:53;;;;;;;107.63;97.03;;;4.40;95.40;;;;;;5051991;28;20502;-80
2021/12/02 01:45:25;;;;;;;106.78;96.07;;;4.30;95.40;;;;;;5051715;28;20053;-79
2021/12/02 01:47:55;;;;;;;107.07;96.57;;;4.40;95.30;;;;;;5051951;28;20049;-80
2021/12/02 01:50:25;;;;;;;106.80;96.13;;;4.30;95.20;;;;;;5052562;28;20049;-80
2021/12/02 01:52:56;;;;;;;107.68;96.97;;;4.30;95.30;;;;;;5060484;28;20049;-83
2021/12/02 01:55:24;;;;;;;109.07;98.10;;;4.30;95.40;;;;;;5067430;28;20211;-82
2021/12/02 01:57:59;;;;;;;109.95;98.65;;;4.30;95.40;;;;;;5028311;28;20056;-82
2021/12/02 02:00:33;;;;;;;107.22;96.20;;;4.30;95.40;;;;;;5070399;28;20528;-82
2021/12/02 02:03:02;;;;;;;107.60;96.40;;;4.40;95.50;;;;;;5077946;28;20045;-81
2021/12/02 02:05:30;;;;;;;107.80;97.03;;;4.40;95.50;;;;;;5070331;28;20132;-82
2021/12/02 02:08:01;;;;;;;106.47;95.68;;;4.30;95.50;;;;;;5052334;28;20803;-82
2021/12/02 02:10:32;;;;;;;107.60;96.80;;;4.30;95.60;;;;;;5068341;28;20486;-82
2021/12/02 02:13:03;;;;;;;107.35;96.45;;;4.30;95.60;;;;;;5061855;28;20055;-79
2021/12/02 02:15:32;;;;;;;106.50;95.90;;;4.20;95.60;;;;;;5061693;28;20060;-80
2021/12/02 02:18:04;;;;;;;106.90;95.95;;;4.20;95.70;;;;;;5077680;28;20049;-79
2021/12/02 02:20:40;;;;;;;106.13;95.53;;;4.20;95.70;;;;;;5079065;28;20057;-80
2021/12/02 02:23:11;;;;;;;106.57;95.93;;;4.10;95.90;;;;;;5078928;28;20774;-80
2021/12/02 02:25:39;;;;;;;106.45;95.78;;;4.00;95.80;;;;;;5078256;28;20059;-80
2021/12/02 02:28:06;;;;;;;106.03;95.32;;;4.00;96.00;;;;;;5078812;28;20057;-80
2021/12/02 02:30:34;;;;;;;106.30;95.45;;;4.00;96.10;;;;;;5079176;28;20461;-80
2021/12/02 02:33:01;;;;;;;106.28;95.63;;;3.90;96.10;;;;;;5078798;28;20053;-79
2021/12/02 02:35:28;;;;;;;106.97;96.18;;;3.80;96.10;;;;;;5078275;28;20496;-80
2021/12/02 02:37:59;;;;;;;107.80;96.80;;;3.80;96.20;;;;;;5061955;28;20057;-80
2021/12/02 02:40:27;;;;;;;107.13;96.25;;;3.80;96.30;;;;;;5078765;28;20055;-79
2021/12/02 02:42:58;;;;;;;106.57;95.78;;;3.70;96.30;;;;;;5078626;28;20053;-80
2021/12/02 02:45:26;;;;;;;107.13;96.30;;;3.70;96.40;;;;;;5077947;28;20049;-80
2021/12/02 02:47:53;;;;;;;106.32;95.72;;;3.70;96.40;;;;;;5078762;28;20056;-80
2021/12/02 02:50:20;;;;;;;106.50;95.70;;;3.70;96.40;;;;;;5078860;28;20060;-80
2021/12/02 02:52:49;;;;;;;;;;;3.60;96.40;;;;;;5078877;28;20047;-80
2021/12/02 02:55:24;;;;;;;105.07;94.53;;;3.60;96.40;;;;;;5078264;28;19931;-80
2021/12/02 02:58:00;;;;;;;106.88;96.07;;;3.60;96.50;;;;;;5078560;28;20080;-80
2021/12/02 03:00:32;;;;;;;106.23;95.53;;;3.60;96.40;;;;;;5078549;28;20584;-80
2021/12/02 03:03:13;;;;;;;105.63;94.72;;;3.50;96.50;;;;;;5078546;28;20287;-80
2021/12/02 03:05:53;;;;;;;106.25;95.47;;;3.50;96.60;;;;;;5074240;28;20079;-80
2021/12/02 03:08:23;;;;;;;106.43;95.50;;;3.60;96.70;;;;;;5074883;28;20128;-80
2021/12/02 03:10:55;;;;;;;105.53;94.93;;;3.50;96.70;;;;;;5075074;28;20482;-80
2021/12/02 03:13:36;;;;;;;105.53;94.82;;;3.50;96.70;;;;;;5058177;28;20049;-80
2021/12/02 03:18:51;;;;;;;105.18;94.47;;;3.50;96.70;;;;;;5058015;28;20045;-80
2021/12/02 03:21:19;;;;;;;104.40;94.00;;;3.50;96.70;;;;;;5074925;28;20067;-80
2021/12/02 03:23:51;;;;;;;106.45;95.75;;;3.50;96.70;;;;;;5074780;28;20423;-80
2021/12/02 03:26:19;;;;;;;105.72;95.03;;;3.50;96.70;;;;;;5074275;28;20096;-80
2021/12/02 03:28:48;;;;;;;105.57;94.97;;;3.50;96.70;;;;;;5057903;28;20053;-82
2021/12/02 03:31:15;;;;;;;105.95;95.22;;;3.50;96.70;;;;;;5074986;28;20835;-80
2021/12/02 03:33:43;;;;;;;106.13;95.25;;;3.50;96.70;;;;;;5074724;28;20531;-80
2021/12/02 03:36:11;;;;;;;106.78;96.07;;;3.50;96.70;;;;;;5074372;28;20072;-80
2021/12/02 03:38:38;;;;;;;106.50;95.60;;;3.40;96.60;;;;;;5074548;28;20063;-80
2021/12/02 03:41:06;;;;;;;105.43;94.65;;;3.50;96.60;;;;;;5074566;28;20063;-80
2021/12/02 03:43:36;;;;;;;105.90;95.20;;;3.40;96.60;;;;;;5057587;28;20099;-80
2021/12/02 03:46:03;;;;;;;105.30;94.70;;;3.40;96.60;;;;;;5074042;28;20145;-80
2021/12/02 03:48:30;;;;;;;105.53;94.53;;;3.40;96.60;;;;;;5074886;28;20144;-80
2021/12/02 03:50:57;;;;;;;;;;;3.30;96.60;;;;;;5075237;28;20060;-80
2021/12/02 03:53:24;;;;;;;;;;;3.30;96.60;;;;;;5092104;28;19929;-80
2021/12/02 03:55:51;;;;;;;105.97;94.90;;;3.20;96.60;;;;;;5074203;28;19925;-80
2021/12/02 03:58:19;;;;;;;105.68;94.88;;;3.20;96.70;;;;;;5074633;28;20063;-80
2021/12/02 04:00:48;;;;;;;106.15;95.25;;;3.20;96.90;;;;;;5074509;28;20103;-80
2021/12/02 04:03:15;;;;;;;107.43;96.55;;;3.20;96.90;;;;;;5074213;28;20136;-80
2021/12/02 04:05:42;;;;;;;106.55;95.55;;;3.20;97.00;;;;;;5075074;28;20053;-80
2021/12/02 04:08:11;;;;;;;;;;;3.20;97.00;;;;;;5074947;28;20053;-80
2021/12/02 04:10:39;;;;;;;105.20;94.20;;;3.20;97.10;;;;;;5074606;28;19954;-80
2021/12/02 04:13:11;;;;;;;106.13;95.40;;;3.10;97.00;;;;;;5073855;28;20049;-80
2021/12/02 04:15:39;;;;;;;105.57;94.70;;;3.10;97.10;;;;;;5056621;28;20056;-80
2021/12/02 04:18:08;;;;;;;105.68;94.95;;;3.10;97.20;;;;;;5074001;28;20110;-80
2021/12/02 04:20:37;;;;;;;106.32;95.45;;;3.10;97.20;;;;;;5074004;28;20132;-80
2021/12/02 04:23:04;;;;;;;106.15;95.15;;;3.20;97.30;;;;;;5073871;28;20045;-80
2021/12/02 04:25:32;;;;;;;107.32;96.40;;;3.20;97.20;;;;;;5073788;28;20045;-80
2021/12/02 04:27:59;;;;;;;;;;;3.10;97.30;;;;;;5074552;28;20128;-80
2021/12/02 04:30:27;;;;;;;104.95;94.13;;;3.10;97.30;;;;;;5074273;28;20019;-80
2021/12/02 04:32:57;;;;;;;104.55;93.88;;;3.20;97.30;;;;;;5073755;28;20522;-80
2021/12/02 04:35:26;;;;;;;105.00;94.40;;;3.10;97.30;;;;;;5073246;28;20049;-80
2021/12/02 04:37:53;;;;;;;105.80;95.07;;;3.10;97.40;;;;;;5073902;28;20080;-80
2021/12/02 04:40:22;;;;;;;105.78;94.78;;;3.10;97.30;;;;;;5073753;28;20059;-80
2021/12/02 04:42:49;;;;;;;105.93;95.18;;;3.10;97.40;;;;;;5073794;28;20127;-80
2021/12/02 04:45:17;;;;;;;106.38;95.55;;;3.10;97.30;;;;;;5073019;28;20049;-80
2021/12/02 04:47:44;;;;;;;105.47;94.68;;;3.00;97.30;;;;;;5056873;28;20132;-80
2021/12/02 04:50:12;;;;;;;104.63;93.97;;;3.00;97.30;;;;;;5073597;28;20049;-80
2021/12/02 04:52:40;;;;;;;105.57;94.90;;;3.00;97.40;;;;;;5073117;28;20049;-80
2021/12/02 04:55:09;;;;;;;105.72;95.10;;;3.00;97.50;;;;;;5072770;28;20049;-80
2021/12/02 04:57:36;;;;;;;105.55;94.68;;;3.00;97.60;;;;;;5056619;28;20077;-80
2021/12/02 05:00:05;;;;;;;106.00;95.03;;;3.00;97.60;;;;;;5073079;28;20072;-80
2021/12/02 05:02:32;;;;;;;105.68;94.97;;;3.00;97.60;;;;;;5073320;28;20080;-80
2021/12/02 05:04:59;;;;;;;;;;;3.00;97.60;;;;;;5073119;28;20137;-80
2021/12/02 05:07:26;;;;;;;;;;;3.00;97.60;;;;;;5074275;28;20014;-80
2021/12/02 05:09:55;;;;;;;106.03;95.13;;;3.00;97.60;;;;;;5073589;28;19925;-80
2021/12/02 05:12:22;;;;;;;105.43;94.82;;;3.00;97.60;;;;;;5073462;28;20165;-80
2021/12/02 05:14:49;;;;;;;106.20;95.38;;;3.00;97.60;;;;;;5072691;28;20063;-80
2021/12/02 05:17:16;;;;;;;105.07;94.43;;;3.00;97.60;;;;;;5056701;28;20128;-80
2021/12/02 05:19:43;;;;;;;105.97;95.03;;;3.00;97.60;;;;;;5073115;28;20470;-81
2021/12/02 05:22:10;;;;;;;105.05;94.35;;;3.00;97.60;;;;;;5073007;28;20519;-80
2021/12/02 05:24:47;;;;;;;104.18;93.32;;;3.00;97.60;;;;;;5073284;28;20057;-80
2021/12/02 05:27:15;;;;;;;105.22;94.68;;;3.00;97.60;;;;;;5055853;28;20053;-80
2021/12/02 05:29:42;;;;;;;104.97;94.28;;;3.00;97.60;;;;;;5056355;28;20053;-80
2021/12/02 05:32:10;;;;;;;105.40;94.75;;;3.00;97.60;;;;;;5072874;28;20063;-80
2021/12/02 05:34:36;;;;;;;;;;;2.90;97.60;;;;;;5073325;28;20057;-80
2021/12/02 05:37:04;;;;;;;104.53;93.72;;;2.90;97.60;;;;;;5073355;28;19925;-80
2021/12/02 05:39:31;;;;;;;106.13;95.32;;;2.90;97.60;;;;;;5072872;28;20139;-80
2021/12/02 05:41:58;;;;;;;;;;;2.90;97.60;;;;;;5073203;28;20053;-80
2021/12/02 05:44:27;;;;;;;105.00;94.07;;;2.90;97.60;;;;;;5072956;28;19932;-80
2021/12/02 05:46:54;;;;;;;106.32;95.53;;;2.90;97.70;;;;;;5055838;28;20055;-80
2021/12/02 05:49:22;;;;;;;105.72;94.88;;;2.90;97.70;;;;;;5072731;28;20056;-80
2021/12/02 05:51:48;;;;;;;;;;;2.90;97.70;;;;;;5072858;28;20049;-80
2021/12/02 05:54:16;;;;;;;105.20;94.35;;;2.90;97.70;;;;;;5073061;28;19960;-79
2021/12/02 05:56:43;;;;;;;105.80;95.00;;;2.90;97.70;;;;;;5073381;28;20052;-80
2021/12/02 05:59:10;;;;;;;105.55;94.85;;;2.90;97.70;;;;;;5072855;28;20137;-80
2021/12/02 06:01:42;;;;;;;104.75;94.30;;;2.90;97.80;;;;;;5072227;28;20128;-79
2021/12/02 06:04:09;;;;;;;105.57;94.88;;;2.90;97.80;;;;;;5072617;28;20103;-80
2021/12/02 06:06:37;;;;;;;106.30;95.45;;;2.90;97.90;;;;;;5071980;28;20111;-80
2021/12/02 06:09:05;;;;;;;105.97;95.38;;;2.90;97.90;;;;;;5072514;28;20057;-80
2021/12/02 06:11:32;;;;;;;107.72;96.97;;;2.90;97.90;;;;;;5072168;28;20052;-80
2021/12/02 06:13:59;;;;;;;;;;;2.90;97.90;;;;;;5072779;28;20515;-80
2021/12/02 06:16:26;;;;;;;105.57;94.88;;;2.90;97.90;;;;;;5072059;28;19925;-80
2021/12/02 06:18:54;;;;;;;105.78;94.78;;;2.90;97.90;;;;;;5072524;28;20123;-80
2021/12/02 06:21:21;;;;;;;105.18;94.60;;;2.90;97.90;;;;;;5070459;28;20159;-80
2021/12/02 06:23:48;;;;;;;;;;;2.90;97.90;;;;;;5051972;28;20049;-80
2021/12/02 06:26:15;;;;;;;105.25;94.40;;;2.90;97.90;;;;;;5051591;28;19925;-80
2021/12/02 06:28:42;;;;;;;104.90;94.32;;;2.90;98.00;;;;;;5052379;28;20140;-80
2021/12/02 06:31:09;;;;;;;105.78;94.82;;;2.90;98.00;;;;;;5050899;28;20060;-80
2021/12/02 06:33:36;;;;;;;;;;;2.90;98.00;;;;;;5052493;28;20144;-80
2021/12/02 06:36:05;;;;;;;;;;;2.90;98.00;;;;;;5056186;28;19960;-83
2021/12/02 06:38:33;;;;;;;105.70;94.72;;;2.90;98.00;;;;;;5063791;28;19935;-83
2021/12/02 06:41:00;;;;;;;104.47;93.97;;;3.00;98.10;;;;;;5046896;28;20132;-84
2021/12/02 06:43:27;;;;;;;106.22;95.53;;;3.00;98.00;;;;;;5063876;28;20123;-86
2021/12/02 06:45:54;;;;;;;105.03;94.43;;;3.00;98.10;;;;;;5050943;28;20060;-87
2021/12/02 06:48:22;;;;;;;105.88;95.10;;;3.00;98.10;;;;;;5050531;28;20061;-86
2021/12/02 06:50:49;;;;;;;105.18;94.57;;;3.00;98.20;;;;;;5064791;28;20504;-88
2021/12/02 06:53:19;;;;;;;105.82;95.05;;;3.00;98.20;;;;;;5052421;28;20050;-84
2021/12/02 06:55:46;;;;;;;106.18;95.53;;;3.00;98.10;;;;;;5038165;28;20144;-84
2021/12/02 06:58:13;;;;;;;;;;;3.10;98.20;;;;;;5058685;28;20076;-85
2021/12/02 07:00:40;;;;;;;106.50;95.55;;;3.00;98.10;;;;;;5058162;28;19960;-84
2021/12/02 07:03:12;;;;;;;;;;;3.10;98.20;;;;;;5069490;28;20044;-85
2021/12/02 07:05:40;;;;;;;104.00;93.40;;;3.10;98.10;;;;;;5069091;28;19956;-84
2021/12/02 07:08:07;;;;;;;105.60;94.75;;;3.10;98.10;;;;;;5058538;28;20053;-85
2021/12/02 07:10:36;;;;;;;;;;;3.10;98.10;;;;;;5059152;28;20057;-84
2021/12/02 07:13:03;;;;;;;106.32;95.45;;;3.10;98.10;;;;;;5060797;28;20330;-81
2021/12/02 07:15:31;;;;;;;;;;;3.10;98.10;;;;;;5054229;28;20065;-81
2021/12/02 07:18:00;;;;;;;104.35;93.68;;;3.10;98.00;;;;;;5054188;28;19932;-81
2021/12/02 07:20:30;;;;;;;105.72;94.72;;;3.10;98.00;;;;;;5037397;28;20177;-81
2021/12/02 07:22:57;;;;;;;107.00;96.30;;;3.10;98.00;;;;;;5036640;28;20144;-81
2021/12/02 07:25:24;;;;;;;;;;;3.00;97.90;;;;;;5052921;28;20180;-81
2021/12/02 07:27:53;;;;;;;104.60;94.00;;;3.00;97.90;;;;;;5050980;28;20445;-81
2021/12/02 07:30:20;;;;;;;106.90;96.10;;;3.00;98.00;;;;;;5056983;28;20081;-82
2021/12/02 07:32:52;;;;;;;107.25;96.50;;;3.00;97.90;;;;;;5073595;28;20057;-81
2021/12/02 07:35:19;;;;;;;107.38;96.57;;;3.00;98.00;;;;;;5071971;28;20084;-82
2021/12/02 07:37:47;;;;;;;;;;;3.00;98.10;;;;;;5073747;28;20132;-81
2021/12/02 07:40:16;;;;;;;107.53;96.65;;;3.00;98.10;;;;;;5061834;28;20027;-79
2021/12/02 07:42:45;;;;;;;107.88;96.80;;;3.00;98.10;;;;;;5053700;28;20510;-81
2021/12/02 07:45:14;;;;;;;105.82;95.13;;;3.00;98.10;;;;;;5064268;28;20422;-78
2021/12/02 07:47:42;;;;;;;108.07;97.38;;;3.00;98.10;;;;;;5064427;28;20128;-81
2021/12/02 07:50:11;;;;;;;106.10;95.50;;;3.00;98.20;;;;;;5064106;28;20442;-78
2021/12/02 07:52:43;;;;;;;106.35;95.70;;;3.00;98.20;;;;;;5063304;28;20060;-80
2021/12/02 07:55:13;;;;;;;107.68;96.78;;;3.00;98.30;;;;;;5064284;28;20052;-79
2021/12/02 07:57:43;;;;;;;106.22;95.43;;;3.00;98.20;;;;;;5063634;28;20137;-79
2021/12/02 08:00:11;;;;;;;105.18;94.47;;;3.00;98.20;;;;;;5062350;28;20056;-78
2021/12/02 08:02:43;;;;;;;106.22;95.40;;;3.10;98.20;;;;;;5062901;28;20080;-80
2021/12/02 08:05:10;;;;;;;106.57;95.78;;;3.10;98.10;;;;;;5063437;28;20103;-78
2021/12/02 08:07:39;;;;;;;106.43;95.43;;;3.10;98.20;;;;;;5063198;28;20053;-83
2021/12/02 08:10:07;;;;;;;105.85;95.07;;;3.00;98.10;;;;;;5073019;28;20464;-78
2021/12/02 08:12:35;;;;;;;104.63;94.13;;;3.00;98.10;;;;;;5061622;28;20061;-85
2021/12/02 08:15:03;;;;;;;105.05;94.30;;;3.10;98.20;;;;;;5046988;28;20053;-79
2021/12/02 08:17:31;;;;;;;105.85;95.18;;;3.00;98.20;;;;;;5061091;28;20064;-80
2021/12/02 08:19:59;;;;;;;106.40;95.63;;;3.00;98.20;;;;;;5067838;28;20589;-79
2021/12/02 08:22:26;;;;;;;106.22;95.43;;;3.00;98.30;;;;;;5073963;28;20053;-79
2021/12/02 08:24:53;;;;;;;;;;;3.00;98.30;;;;;;5060897;28;20050;-85
2021/12/02 08:27:22;;;;;;;;;;;3.10;98.30;;;;;;5037416;28;19925;-78
2021/12/02 08:29:49;;;;;;;106.43;95.50;;;3.10;98.30;;;;;;5072246;28;20011;-79
2021/12/02 08:32:17;;;;;;;107.38;96.45;;;3.10;98.30;;;;;;5050174;28;20061;-86
2021/12/02 08:34:43;;;;;;;;;;;3.10;98.30;;;;;;5046666;28;20099;-86
2021/12/02 08:37:13;;;;;;;105.70;95.00;;;3.10;98.30;;;;;;5080888;28;19929;-87
2021/12/02 08:39:41;;;;;;;104.57;93.88;;;3.20;98.30;;;;;;5048593;28;20128;-87
2021/12/02 08:42:10;;;;;;;106.20;95.60;;;3.20;98.30;;;;;;5047943;28;20061;-83
2021/12/02 08:44:40;;;;;;;106.55;95.97;;;3.20;98.30;;;;;;5051852;28;20049;-86
2021/12/02 08:47:11;;;;;;;105.15;94.55;;;3.30;98.40;;;;;;5062907;28;20838;-89
2021/12/02 08:49:38;;;;;;;105.30;94.78;;;3.20;98.30;;;;;;5048416;28;20084;-87
2021/12/02 08:52:06;;;;;;;107.50;96.68;;;3.30;98.40;;;;;;5062139;28;20050;-86
2021/12/02 08:54:35;;;;;;;105.78;95.15;;;3.30;98.40;;;;;;5062456;28;20058;-88
2021/12/02 08:57:02;;;;;;;105.22;94.70;;;3.40;98.40;;;;;;5044992;28;20049;-87
2021/12/02 08:59:30;;;;;;;106.10;95.38;;;3.40;98.40;;;;;;5042748;28;20830;-86
2021/12/02 09:02:01;;;;;;;106.05;95.38;;;3.40;98.40;;;;;;5042284;28;20209;-88
2021/12/02 09:04:29;;;;;;;105.82;95.13;;;3.40;98.40;;;;;;5054114;28;20128;-89
2021/12/02 09:06:56;;;;;;;106.20;95.50;;;3.40;98.40;;;;;;4997188;28;20045;-89
2021/12/02 09:09:27;;;;;;;106.03;95.40;;;3.50;98.40;;;;;;5074113;28;20060;-89
2021/12/02 09:11:57;;;;;;;106.05;95.47;;;3.50;98.40;;;;;;5048898;28;20059;-88
2021/12/02 09:14:24;;;;;;;106.65;96.13;;;3.50;98.40;;;;;;5071816;28;20059;-85
2021/12/02 09:16:52;;;;;;;106.57;95.75;;;3.40;98.30;;;;;;5056988;28;20052;-86
2021/12/02 09:19:19;;;;;;;106.13;95.28;;;3.50;98.30;;;;;;5073990;28;20045;-86
2021/12/02 09:21:48;;;;;;;105.95;95.35;;;3.50;98.40;;;;;;5057488;28;20049;-89
2021/12/02 09:24:19;;;;;;;104.90;94.47;;;3.50;98.40;;;;;;5048103;28;20059;-90
2021/12/02 09:26:47;;;;;;;105.45;94.78;;;3.50;98.30;;;;;;5052729;28;20049;-86
2021/12/02 09:29:19;;;;;;;105.50;94.85;;;3.50;98.30;;;;;;5055279;28;20050;-90
2021/12/02 09:31:47;;;;;;;105.95;95.35;;;3.50;98.40;;;;;;5065041;28;20087;-85
2021/12/02 09:34:17;;;;;;;107.18;96.32;;;3.60;98.40;;;;;;5064821;28;20122;-89
2021/12/02 09:36:46;;;;;;;107.40;96.60;;;3.60;98.40;;;;;;5072623;28;20156;-76
2021/12/02 09:39:17;;;;;;;105.82;95.18;;;3.60;98.40;;;;;;5073555;28;20537;-87
2021/12/02 09:41:46;;;;;;;106.43;95.53;;;3.60;98.40;;;;;;5038305;28;20056;-87
2021/12/02 09:44:14;;;;;;;106.35;95.75;;;3.70;98.40;;;;;;5037542;28;20057;-86
2021/12/02 09:46:55;;;;;;;105.38;94.80;;;3.70;98.40;;;;;;5038046;28;20049;-86
2021/12/02 09:49:24;;;;;;;106.60;95.82;;;3.70;98.40;;;;;;5036542;28;20054;-86
2021/12/02 09:52:00;;;;;;;106.88;96.18;;;3.70;98.40;;;;;;5052700;28;20056;-88
2021/12/02 09:54:31;;;;;;;107.38;96.68;;;3.70;98.40;;;;;;5036386;28;20057;-86
2021/12/02 09:57:02;;;;;;;107.70;97.00;;;3.80;98.50;;;;;;5053205;28;20061;-88
2021/12/02 09:59:34;;;;;;;107.20;96.50;;;3.80;98.40;;;;;;5052793;28;20528;-84
2021/12/02 10:02:06;;;;;;;107.75;96.95;;;3.90;98.40;;;;;;5035657;28;20053;-85
2021/12/02 10:04:38;;;;;;;107.85;97.15;;;3.80;98.40;;;;;;5055152;28;20053;-84
2021/12/02 10:07:12;;;;;;;107.07;96.38;;;3.90;98.40;;;;;;5070958;28;20053;-84
2021/12/02 10:09:42;;;;;;;107.15;96.38;;;3.90;98.50;;;;;;5055833;28;20471;-84
2021/12/02 10:12:17;;;;;;;107.90;97.07;;;4.00;98.50;;;;;;5072401;28;20111;-81
2021/12/02 10:14:52;;;;;;;109.90;98.90;;;4.00;98.50;;;;;;5072904;28;20060;-87
2021/12/02 10:17:28;;;;;;;107.38;96.65;;;4.10;98.60;;;;;;5059142;28;20128;-84
2021/12/02 10:24:09;;;;;;;106.95;96.22;;;4.20;98.60;;;;;;5056784;28;20061;-86
2021/12/02 10:26:40;;;;;;;106.00;95.30;;;4.30;98.60;;;;;;5055831;28;20797;-85
2021/12/02 10:29:10;;;;;;;106.88;96.18;;;4.30;98.50;;;;;;5057462;28;20069;-84
2021/12/02 10:31:38;;;;;;;108.57;97.68;;;4.30;98.50;;;;;;5057679;28;20053;-85
2021/12/02 10:34:08;;;;;;;109.80;99.00;;;4.40;98.50;;;;;;5058129;28;20068;-83
2021/12/02 10:36:43;;;;;;;108.05;97.25;;;4.40;98.60;;;;;;5074377;28;20084;-83
2021/12/02 10:39:12;;;;;;;109.10;98.20;;;4.50;98.60;;;;;;5062711;28;20461;-83
2021/12/02 10:41:43;;;;;;;107.78;97.00;;;4.50;98.50;;;;;;5068232;28;20532;-84
2021/12/02 10:44:20;;;;;;;106.95;96.45;;;4.50;98.40;;;;;;5063258;28;20049;-84
2021/12/02 11:00:08;;;;;;;105.85;95.22;;;4.70;98.30;;;;;;5114535;22;20052;-85
2021/12/02 11:02:38;;;;;;;105.93;95.43;;;4.70;98.20;;;;;;5060937;28;20493;-85
2021/12/02 11:05:19;;;;;;;106.05;95.65;;;4.70;98.10;;;;;;5059382;28;20114;-87
2021/12/02 11:07:57;;;;;;;106.03;95.63;;;4.70;97.80;;;;;;5081143;28;20041;-87
2021/12/02 11:17:16;;;;;;;106.63;96.13;;;4.50;97.40;;;;;;5033693;28;20060;-89
2021/12/02 11:19:52;;;;;;;107.25;96.85;;;4.40;97.30;;;;;;5059306;28;20057;-89
2021/12/02 11:22:38;;;;;;;107.25;96.85;;;4.40;97.40;;;;;;5059392;28;20053;-87
2021/12/02 11:25:08;;;;;;;;;;;4.40;97.50;;;;;;5072629;28;20049;-87
2021/12/02 11:27:40;;;;;;;106.03;95.53;;;4.40;97.70;;;;;;5083380;28;20015;-87
2021/12/02 11:30:16;;;;;;;106.63;96.15;;;4.40;97.90;;;;;;5073510;28;20057;-85
2021/12/02 11:32:53;;;;;;;106.63;96.22;;;4.50;97.80;;;;;;5058447;28;20514;-83
2021/12/02 11:35:24;;;;;;;107.40;96.90;;;4.50;97.80;;;;;;5072894;28;20556;-86
2021/12/02 11:37:54;;;;;;;105.07;94.82;;;4.60;97.80;;;;;;5053783;28;20056;-87
2021/12/02 11:40:23;;;;;;;107.60;97.20;;;4.60;97.70;;;;;;5071143;28;20605;-82
2021/12/02 11:42:51;;;;;;;107.50;97.10;;;4.60;97.60;;;;;;5057408;28;20049;-84
2021/12/02 11:45:20;;;;;;;106.75;96.35;;;4.60;97.60;;;;;;5073358;28;20048;-83
2021/12/02 11:47:50;;;;;;;108.25;97.75;;;4.60;97.50;;;;;;5075492;28;20059;-82
2021/12/02 11:50:20;;;;;;;109.25;98.72;;;4.60;97.50;;;;;;5072170;28;20045;-82
2021/12/02 11:52:47;;;;;;;108.68;97.75;;;4.60;97.50;;;;;;5073240;28;20067;-84
2021/12/02 11:55:26;;;;;;;107.03;96.63;;;4.60;97.50;;;;;;5074505;28;20103;-84
2021/12/02 11:57:54;;;;;;;108.35;97.95;;;4.60;97.60;;;;;;5074296;28;20490;-86
2021/12/02 12:00:23;;;;;;;107.13;96.72;;;4.60;97.60;;;;;;5056434;28;20049;-82
2021/12/02 12:02:57;;;;;;;107.95;97.55;;;4.60;97.60;;;;;;5072620;28;20124;-83
2021/12/02 12:05:28;;;;;;;106.65;96.25;;;4.60;97.50;;;;;;5068009;28;20091;-84
2021/12/02 12:07:56;;;;;;;106.03;95.72;;;4.60;97.50;;;;;;5075009;28;20053;-86
2021/12/02 12:10:27;;;;;;;107.03;96.55;;;4.60;97.40;;;;;;5070900;28;20538;-86
2021/12/02 12:13:15;;;;;;;106.20;95.90;;;4.60;97.30;;;;;;5048198;28;20057;-86
2021/12/02 12:15:44;;;;;;;107.57;97.18;;;4.60;97.20;;;;;;5089856;28;20080;-85
2021/12/02 12:18:22;;;;;;;109.68;99.10;;;4.70;97.50;;;;;;5058934;28;20052;-86
2021/12/02 12:20:58;;;;;;;108.28;97.78;;;4.70;97.30;;;;;;5058327;28;20406;-85
2021/12/02 12:23:44;;;;;;;107.60;97.18;;;4.70;97.10;;;;;;5057755;28;20065;-85
2021/12/02 12:26:20;;;;;;;106.10;95.70;;;4.70;97.10;;;;;;5072484;28;20063;-89
2021/12/02 12:35:40;;;;;;;106.85;96.43;;;4.70;97.10;;;;;;5093583;28;20060;-85
2021/12/02 12:38:28;;;;;;;105.88;95.47;;;4.70;97.10;;;;;;5069000;28;20821;-87
2021/12/02 12:41:18;;;;;;;106.22;95.63;;;4.70;97.00;;;;;;5053983;28;20486;-91
2021/12/02 12:43:53;;;;;;;105.78;95.25;;;4.70;97.00;;;;;;5062975;28;20087;-90
2021/12/02 12:46:58;;;;;;;105.65;95.25;;;4.60;96.90;;;;;;5059747;28;20053;-89
2021/12/02 12:49:40;;;;;;;;;;;;;;;;;;;;;
2021/12/02 12:52:20;;;;;;;106.57;96.00;;;4.60;97.10;;;;;;5072119;28;20585;-90
2021/12/02 12:55:14;;;;;;;108.00;97.50;;;4.60;97.00;;;;;;5065716;28;20049;-90
2021/12/02 12:58:12;;;;;;;106.68;96.28;;;4.60;97.20;;;;;;5050963;28;20139;-88
2021/12/02 13:00:42;;;;;;;106.97;96.57;;;4.70;97.00;;;;;;5061116;28;20056;-89
2021/12/02 13:03:14;;;;;;;105.35;95.05;;;4.60;97.00;;;;;;4999193;28;20512;-87
2021/12/02 13:05:45;;;;;;;107.35;96.95;;;4.70;97.10;;;;;;5054240;28;20044;-88
2021/12/02 13:08:21;;;;;;;107.97;97.47;;;4.70;97.10;;;;;;5057628;28;20052;-87
2021/12/02 13:10:51;;;;;;;107.43;96.93;;;4.70;97.00;;;;;;5055853;28;20132;-82
2021/12/02 13:13:24;;;;;;;108.40;97.90;;;4.70;97.00;;;;;;5074809;28;20060;-83
2021/12/02 13:15:52;;;;;;;110.65;99.95;;;4.70;97.00;;;;;;5058766;28;20051;-83
2021/12/02 13:18:31;;;;;;;108.05;97.55;;;4.70;96.90;;;;;;5059332;28;20139;-83
2021/12/02 13:21:17;;;;;;;108.03;97.57;;;4.80;96.90;;;;;;5054367;28;20064;-83
2021/12/02 13:23:55;;;;;;;109.93;99.32;;;4.80;96.80;;;;;;5055751;28;20049;-83
2021/12/02 13:26:25;;;;;;;107.90;97.20;;;4.80;96.80;;;;;;5054095;28;20127;-83
2021/12/02 13:28:56;;;;;;;108.20;97.70;;;4.80;96.80;;;;;;5056282;28;20136;-83
2021/12/02 13:31:26;;;;;;;110.00;99.28;;;4.80;96.80;;;;;;5055985;28;20126;-82